sensor_id;sensor_type;location;lat;lon;timestamp;pressure;altitude;pressure_sealevel;temperature;humidity
9774;BME280;4926;42.670;23.316;2023-05-13T00:02:26;94910.22;;;8.67;100.00
9774;BME280;4926;42.670;23.316;2023-05-13T00:04:54;94913.41;;;8.69;100.00
9774;BME280;4926;42.670;23.316;2023-05-13T00:07:21;94916.06;;;8.74;97.48
9774;BME280;4926;42.670;23.316;2023-05-13T00:09:48;94914.72;;;8.82;96.05
9774;BME280;4926;42.670;23.316;2023-05-13T00:12:14;94918.44;;;8.86;91.21
9774;BME280;4926;42.670;23.316;2023-05-13T00:14:42;94933.31;;;8.92;89.59
9774;BME280;4926;42.670;23.316;2023-05-13T00:17:12;94943.38;;;9.00;90.24
9774;BME280;4926;42.670;23.316;2023-05-13T00:19:39;94943.38;;;9.05;89.97
9774;BME280;4926;42.670;23.316;2023-05-13T00:22:17;94951.31;;;9.10;89.32
9774;BME280;4926;42.670;23.316;2023-05-13T00:24:44;94957.72;;;9.14;88.37
9774;BME280;4926;42.670;23.316;2023-05-13T00:27:11;94945.50;;;9.03;88.65
9774;BME280;4926;42.670;23.316;2023-05-13T00:29:38;94958.53;;;9.10;89.00
9774;BME280;4926;42.670;23.316;2023-05-13T00:32:08;94957.19;;;9.02;90.58
9774;BME280;4926;42.670;23.316;2023-05-13T00:34:35;94961.41;;;9.08;91.02
9774;BME280;4926;42.670;23.316;2023-05-13T00:37:04;94960.91;;;9.16;90.89
9774;BME280;4926;42.670;23.316;2023-05-13T00:39:32;94966.22;;;9.16;93.04
9774;BME280;4926;42.670;23.316;2023-05-13T00:41:59;94964.88;;;9.24;98.23
9774;BME280;4926;42.670;23.316;2023-05-13T00:44:28;94949.44;;;9.26;100.00
9774;BME280;4926;42.670;23.316;2023-05-13T00:46:55;94949.16;;;9.42;100.00
9774;BME280;4926;42.670;23.316;2023-05-13T00:49:22;94953.44;;;9.33;100.00
9774;BME280;4926;42.670;23.316;2023-05-13T00:51:58;94950.50;;;9.30;100.00
9774;BME280;4926;42.670;23.316;2023-05-13T00:54:26;94937.53;;;9.18;100.00
9774;BME280;4926;42.670;23.316;2023-05-13T00:56:55;94951.06;;;9.22;100.00
9774;BME280;4926;42.670;23.316;2023-05-13T00:59:23;94948.41;;;9.12;100.00
9774;BME280;4926;42.670;23.316;2023-05-13T01:01:55;94946.00;;;9.10;100.00
9774;BME280;4926;42.670;23.316;2023-05-13T01:04:30;94932.25;;;8.88;100.00
9774;BME280;4926;42.670;23.316;2023-05-13T01:07:08;94943.66;;;8.78;100.00
9774;BME280;4926;42.670;23.316;2023-05-13T01:09:47;94946.56;;;8.67;100.00
9774;BME280;4926;42.670;23.316;2023-05-13T01:12:28;94957.72;;;8.64;100.00
9774;BME280;4926;42.670;23.316;2023-05-13T01:15:05;94973.66;;;8.69;100.00
9774;BME280;4926;42.670;23.316;2023-05-13T01:17:36;94970.19;;;8.63;100.00
9774;BME280;4926;42.670;23.316;2023-05-13T01:20:09;94977.34;;;8.68;100.00
9774;BME280;4926;42.670;23.316;2023-05-13T01:22:38;94981.59;;;8.79;100.00
9774;BME280;4926;42.670;23.316;2023-05-13T01:25:05;94987.72;;;8.89;100.00
9774;BME280;4926;42.670;23.316;2023-05-13T01:27:32;94990.63;;;8.98;100.00
9774;BME280;4926;42.670;23.316;2023-05-13T01:30:04;94992.50;;;9.13;100.00
9774;BME280;4926;42.670;23.316;2023-05-13T01:32:35;94995.94;;;9.28;100.00
9774;BME280;4926;42.670;23.316;2023-05-13T01:35:07;94998.59;;;9.33;100.00
9774;BME280;4926;42.670;23.316;2023-05-13T01:37:40;94995.63;;;9.55;100.00
9774;BME280;4926;42.670;23.316;2023-05-13T01:40:08;94998.31;;;9.40;100.00
9774;BME280;4926;42.670;23.316;2023-05-13T01:42:38;94989.00;;;9.27;100.00
9774;BME280;4926;42.670;23.316;2023-05-13T01:45:08;94998.31;;;9.50;100.00
9774;BME280;4926;42.670;23.316;2023-05-13T01:47:36;94992.44;;;9.53;100.00
9774;BME280;4926;42.670;23.316;2023-05-13T01:50:04;94973.06;;;9.42;100.00
9774;BME280;4926;42.670;23.316;2023-05-13T01:52:33;94996.44;;;9.45;100.00
9774;BME280;4926;42.670;23.316;2023-05-13T01:55:01;94978.91;;;9.49;100.00
9774;BME280;4926;42.670;23.316;2023-05-13T01:57:28;94991.13;;;9.50;100.00
9774;BME280;4926;42.670;23.316;2023-05-13T01:59:54;94989.50;;;9.59;100.00
9774;BME280;4926;42.670;23.316;2023-05-13T02:02:21;94982.06;;;9.61;97.66
9774;BME280;4926;42.670;23.316;2023-05-13T02:04:48;94975.69;;;9.57;98.20
9774;BME280;4926;42.670;23.316;2023-05-13T02:07:15;94989.97;;;9.81;97.73
9774;BME280;4926;42.670;23.316;2023-05-13T02:09:41;94993.66;;;9.90;97.58
9774;BME280;4926;42.670;23.316;2023-05-13T02:12:09;94992.59;;;9.96;95.94
9774;BME280;4926;42.670;23.316;2023-05-13T02:14:36;94987.50;;;10.05;93.77
9774;BME280;4926;42.670;23.316;2023-05-13T02:17:03;94984.28;;;10.08;91.62
9774;BME280;4926;42.670;23.316;2023-05-13T02:19:30;94979.78;;;10.08;90.95
9774;BME280;4926;42.670;23.316;2023-05-13T02:21:57;94974.19;;;10.05;88.58
9774;BME280;4926;42.670;23.316;2023-05-13T02:24:24;94993.63;;;10.10;88.60
9774;BME280;4926;42.670;23.316;2023-05-13T02:26:53;94988.31;;;10.10;87.09
9774;BME280;4926;42.670;23.316;2023-05-13T02:29:21;95005.84;;;10.11;88.30
9774;BME280;4926;42.670;23.316;2023-05-13T02:31:48;95006.91;;;10.05;93.19
9774;BME280;4926;42.670;23.316;2023-05-13T02:34:17;95006.50;;;9.68;97.32
9774;BME280;4926;42.670;23.316;2023-05-13T02:36:43;95001.22;;;9.48;100.00
9774;BME280;4926;42.670;23.316;2023-05-13T02:39:10;94993.56;;;9.27;100.00
9774;BME280;4926;42.670;23.316;2023-05-13T02:41:49;94996.22;;;9.07;100.00
9774;BME280;4926;42.670;23.316;2023-05-13T02:44:21;94997.56;;;9.04;100.00
9774;BME280;4926;42.670;23.316;2023-05-13T02:46:49;94992.22;;;8.94;100.00
9774;BME280;4926;42.670;23.316;2023-05-13T02:49:16;94995.41;;;9.01;100.00
9774;BME280;4926;42.670;23.316;2023-05-13T02:51:42;95006.06;;;9.11;100.00
9774;BME280;4926;42.670;23.316;2023-05-13T02:54:10;94999.66;;;9.07;100.00
9774;BME280;4926;42.670;23.316;2023-05-13T02:56:37;95001.25;;;9.03;100.00
9774;BME280;4926;42.670;23.316;2023-05-13T02:59:04;95016.13;;;9.24;100.00
9774;BME280;4926;42.670;23.316;2023-05-13T03:01:31;95014.78;;;9.32;100.00
9774;BME280;4926;42.670;23.316;2023-05-13T03:04:01;95021.44;;;9.39;100.00
9774;BME280;4926;42.670;23.316;2023-05-13T03:06:28;95019.28;;;9.51;100.00
9774;BME280;4926;42.670;23.316;2023-05-13T03:08:56;95015.00;;;9.55;100.00
9774;BME280;4926;42.670;23.316;2023-05-13T03:11:25;95017.16;;;9.63;100.00
9774;BME280;4926;42.670;23.316;2023-05-13T03:13:55;95021.91;;;9.71;100.00
9774;BME280;4926;42.670;23.316;2023-05-13T03:16:21;95020.88;;;9.67;100.00
9774;BME280;4926;42.670;23.316;2023-05-13T03:18:50;95025.09;;;9.73;100.00
9774;BME280;4926;42.670;23.316;2023-05-13T03:21:18;95023.47;;;9.82;100.00
9774;BME280;4926;42.670;23.316;2023-05-13T03:23:45;95021.31;;;9.94;100.00
9774;BME280;4926;42.670;23.316;2023-05-13T03:26:11;95021.56;;;9.98;100.00
9774;BME280;4926;42.670;23.316;2023-05-13T03:28:44;95019.41;;;10.10;100.00
9774;BME280;4926;42.670;23.316;2023-05-13T03:31:11;95030.56;;;10.17;100.00
9774;BME280;4926;42.670;23.316;2023-05-13T03:33:38;95020.69;;;10.23;100.00
9774;BME280;4926;42.670;23.316;2023-05-13T03:36:05;95034.50;;;10.30;100.00
9774;BME280;4926;42.670;23.316;2023-05-13T03:38:35;95037.16;;;10.30;100.00
9774;BME280;4926;42.670;23.316;2023-05-13T03:41:02;95043.03;;;10.27;100.00
9774;BME280;4926;42.670;23.316;2023-05-13T03:43:28;95037.19;;;10.25;100.00
9774;BME280;4926;42.670;23.316;2023-05-13T03:45:55;95051.78;;;10.32;100.00
9774;BME280;4926;42.670;23.316;2023-05-13T03:48:22;95051.53;;;10.34;100.00
9774;BME280;4926;42.670;23.316;2023-05-13T03:50:50;95043.22;;;10.45;100.00
9774;BME280;4926;42.670;23.316;2023-05-13T03:53:18;95028.13;;;10.26;100.00
9774;BME280;4926;42.670;23.316;2023-05-13T03:55:46;95060.00;;;10.36;100.00
9774;BME280;4926;42.670;23.316;2023-05-13T03:58:15;95069.28;;;10.48;100.00
9774;BME280;4926;42.670;23.316;2023-05-13T04:00:43;95068.19;;;10.54;100.00
9774;BME280;4926;42.670;23.316;2023-05-13T04:03:12;95067.41;;;10.54;100.00
9774;BME280;4926;42.670;23.316;2023-05-13T04:05:38;95071.63;;;10.60;100.00
9774;BME280;4926;42.670;23.316;2023-05-13T04:08:05;95074.56;;;10.63;100.00
9774;BME280;4926;42.670;23.316;2023-05-13T04:10:32;95087.56;;;10.70;100.00
9774;BME280;4926;42.670;23.316;2023-05-13T04:13:02;95086.47;;;10.71;100.00
9774;BME280;4926;42.670;23.316;2023-05-13T04:15:29;95081.41;;;10.74;100.00
9774;BME280;4926;42.670;23.316;2023-05-13T04:17:56;95078.19;;;10.77;100.00
9774;BME280;4926;42.670;23.316;2023-05-13T04:20:22;95082.69;;;10.82;100.00
9774;BME280;4926;42.670;23.316;2023-05-13T04:22:50;95080.59;;;10.79;100.00
9774;BME280;4926;42.670;23.316;2023-05-13T04:25:17;95079.50;;;10.80;100.00
9774;BME280;4926;42.670;23.316;2023-05-13T04:27:43;95085.34;;;10.82;100.00
9774;BME280;4926;42.670;23.316;2023-05-13T04:30:13;95075.50;;;10.82;100.00
9774;BME280;4926;42.670;23.316;2023-05-13T04:32:45;95095.69;;;10.88;100.00
9774;BME280;4926;42.670;23.316;2023-05-13T04:35:14;95088.50;;;10.89;100.00
9774;BME280;4926;42.670;23.316;2023-05-13T04:37:41;95096.81;;;10.82;98.63
9774;BME280;4926;42.670;23.316;2023-05-13T04:40:08;95106.84;;;10.95;97.18
9774;BME280;4926;42.670;23.316;2023-05-13T04:42:36;95110.34;;;10.91;92.94
9774;BME280;4926;42.670;23.316;2023-05-13T04:45:04;95112.78;;;10.82;91.12
9774;BME280;4926;42.670;23.316;2023-05-13T04:47:32;95106.59;;;10.92;90.75
9774;BME280;4926;42.670;23.316;2023-05-13T04:50:02;95112.31;;;10.70;88.54
9774;BME280;4926;42.670;23.316;2023-05-13T04:52:29;95110.44;;;10.71;87.17
9774;BME280;4926;42.670;23.316;2023-05-13T04:54:58;95103.84;;;10.63;86.70
9774;BME280;4926;42.670;23.316;2023-05-13T04:57:25;95100.94;;;10.55;86.77
9774;BME280;4926;42.670;23.316;2023-05-13T04:59:51;95099.34;;;10.54;87.35
9774;BME280;4926;42.670;23.316;2023-05-13T05:02:19;95093.44;;;10.67;88.14
9774;BME280;4926;42.670;23.316;2023-05-13T05:04:47;95098.66;;;10.87;89.04
9774;BME280;4926;42.670;23.316;2023-05-13T05:07:14;95096.97;;;11.01;88.70
9774;BME280;4926;42.670;23.316;2023-05-13T05:09:41;95096.31;;;11.19;88.96
9774;BME280;4926;42.670;23.316;2023-05-13T05:12:08;95091.31;;;11.46;88.70
9774;BME280;4926;42.670;23.316;2023-05-13T05:14:34;95094.38;;;11.68;87.64
9774;BME280;4926;42.670;23.316;2023-05-13T05:17:02;95105.19;;;11.82;86.57
9774;BME280;4926;42.670;23.316;2023-05-13T05:19:29;95095.28;;;11.87;84.46
9774;BME280;4926;42.670;23.316;2023-05-13T05:22:12;95092.25;;;11.94;84.17
9774;BME280;4926;42.670;23.316;2023-05-13T05:24:39;95087.63;;;12.04;83.66
9774;BME280;4926;42.670;23.316;2023-05-13T05:27:05;95097.31;;;12.24;82.86
9774;BME280;4926;42.670;23.316;2023-05-13T05:29:32;95099.34;;;12.32;82.20
9774;BME280;4926;42.670;23.316;2023-05-13T05:31:59;95095.72;;;12.47;81.86
9774;BME280;4926;42.670;23.316;2023-05-13T05:34:25;95085.59;;;12.44;79.57
9774;BME280;4926;42.670;23.316;2023-05-13T05:36:58;95089.22;;;12.53;79.76
9774;BME280;4926;42.670;23.316;2023-05-13T05:39:26;95090.28;;;12.75;79.50
9774;BME280;4926;42.670;23.316;2023-05-13T05:41:53;95085.88;;;12.84;77.91
9774;BME280;4926;42.670;23.316;2023-05-13T05:44:20;95093.41;;;12.82;77.18
9774;BME280;4926;42.670;23.316;2023-05-13T05:46:52;95081.13;;;12.81;76.13
9774;BME280;4926;42.670;23.316;2023-05-13T05:49:19;95079.31;;;12.77;75.91
9774;BME280;4926;42.670;23.316;2023-05-13T05:51:46;95084.00;;;12.85;76.54
9774;BME280;4926;42.670;23.316;2023-05-13T05:54:12;95095.13;;;12.92;76.65
9774;BME280;4926;42.670;23.316;2023-05-13T05:56:41;95109.53;;;12.96;76.49
9774;BME280;4926;42.670;23.316;2023-05-13T05:59:07;95096.50;;;12.89;75.97
9774;BME280;4926;42.670;23.316;2023-05-13T06:01:34;95099.16;;;12.89;76.07
9774;BME280;4926;42.670;23.316;2023-05-13T06:04:01;95108.19;;;12.75;76.75
9774;BME280;4926;42.670;23.316;2023-05-13T06:06:28;95103.16;;;12.92;76.09
9774;BME280;4926;42.670;23.316;2023-05-13T06:08:54;95100.59;;;13.05;76.04
9774;BME280;4926;42.670;23.316;2023-05-13T06:11:21;95084.97;;;13.12;73.86
9774;BME280;4926;42.670;23.316;2023-05-13T06:13:49;95084.47;;;13.10;73.57
9774;BME280;4926;42.670;23.316;2023-05-13T06:16:16;95093.09;;;13.26;74.23
9774;BME280;4926;42.670;23.316;2023-05-13T06:18:48;95101.69;;;13.41;73.51
9774;BME280;4926;42.670;23.316;2023-05-13T06:21:15;95095.88;;;13.53;73.49
9774;BME280;4926;42.670;23.316;2023-05-13T06:23:42;95091.03;;;13.55;72.43
9774;BME280;4926;42.670;23.316;2023-05-13T06:26:09;95094.63;;;13.64;72.12
9774;BME280;4926;42.670;23.316;2023-05-13T06:28:35;95095.56;;;13.73;71.29
9774;BME280;4926;42.670;23.316;2023-05-13T06:31:05;95096.63;;;13.72;71.00
9774;BME280;4926;42.670;23.316;2023-05-13T06:33:31;95096.41;;;13.69;71.47
9774;BME280;4926;42.670;23.316;2023-05-13T06:35:58;95113.88;;;13.66;71.86
9774;BME280;4926;42.670;23.316;2023-05-13T06:38:28;95101.66;;;13.60;70.16
9774;BME280;4926;42.670;23.316;2023-05-13T06:40:56;95101.78;;;13.69;70.97
9774;BME280;4926;42.670;23.316;2023-05-13T06:43:23;95096.13;;;13.70;70.49
9774;BME280;4926;42.670;23.316;2023-05-13T06:45:50;95093.03;;;13.63;68.50
9774;BME280;4926;42.670;23.316;2023-05-13T06:48:21;95091.06;;;13.18;67.76
9774;BME280;4926;42.670;23.316;2023-05-13T06:50:48;95086.78;;;13.35;67.85
9774;BME280;4926;42.670;23.316;2023-05-13T06:53:15;95091.31;;;13.54;66.58
9774;BME280;4926;42.670;23.316;2023-05-13T06:55:42;95083.16;;;13.77;65.79
9774;BME280;4926;42.670;23.316;2023-05-13T06:58:09;95077.06;;;13.90;64.93
9774;BME280;4926;42.670;23.316;2023-05-13T07:00:36;95078.88;;;14.08;63.72
9774;BME280;4926;42.670;23.316;2023-05-13T07:03:04;95074.50;;;14.12;60.80
9774;BME280;4926;42.670;23.316;2023-05-13T07:05:33;95074.22;;;14.14;60.62
9774;BME280;4926;42.670;23.316;2023-05-13T07:08:01;95076.13;;;14.13;60.06
9774;BME280;4926;42.670;23.316;2023-05-13T07:10:31;95080.47;;;14.23;59.87
9774;BME280;4926;42.670;23.316;2023-05-13T07:12:58;95067.09;;;14.23;58.52
9774;BME280;4926;42.670;23.316;2023-05-13T07:15:25;95074.47;;;14.31;58.09
9774;BME280;4926;42.670;23.316;2023-05-13T07:17:51;95084.81;;;14.05;58.76
9774;BME280;4926;42.670;23.316;2023-05-13T07:20:18;95090.97;;;14.06;59.55
9774;BME280;4926;42.670;23.316;2023-05-13T07:22:48;95091.09;;;13.82;59.90
9774;BME280;4926;42.670;23.316;2023-05-13T07:25:15;95101.16;;;13.90;59.12
9774;BME280;4926;42.670;23.316;2023-05-13T07:27:41;95100.22;;;13.81;59.52
9774;BME280;4926;42.670;23.316;2023-05-13T07:30:10;95100.22;;;13.81;59.32
9774;BME280;4926;42.670;23.316;2023-05-13T07:32:38;95097.09;;;13.93;58.63
9774;BME280;4926;42.670;23.316;2023-05-13T07:35:06;95099.41;;;13.99;59.49
9774;BME280;4926;42.670;23.316;2023-05-13T07:37:33;95098.91;;;14.11;60.18
9774;BME280;4926;42.670;23.316;2023-05-13T07:40:03;95089.84;;;14.52;60.29
9774;BME280;4926;42.670;23.316;2023-05-13T07:42:30;95082.09;;;14.92;56.79
9774;BME280;4926;42.670;23.316;2023-05-13T07:45:00;95076.81;;;14.73;56.04
9774;BME280;4926;42.670;23.316;2023-05-13T07:47:26;95094.38;;;14.93;57.18
9774;BME280;4926;42.670;23.316;2023-05-13T07:49:56;95083.50;;;15.25;55.06
9774;BME280;4926;42.670;23.316;2023-05-13T07:52:25;95077.03;;;15.26;54.13
9774;BME280;4926;42.670;23.316;2023-05-13T07:54:52;95079.16;;;15.51;54.67
9774;BME280;4926;42.670;23.316;2023-05-13T07:57:20;95072.19;;;15.94;54.42
9774;BME280;4926;42.670;23.316;2023-05-13T07:59:47;95063.88;;;16.43;53.40
9774;BME280;4926;42.670;23.316;2023-05-13T08:02:14;95045.97;;;16.69;51.96
9774;BME280;4926;42.670;23.316;2023-05-13T08:04:40;95041.94;;;16.98;51.07
9774;BME280;4926;42.670;23.316;2023-05-13T08:07:08;95036.75;;;17.52;50.88
9774;BME280;4926;42.670;23.316;2023-05-13T08:09:35;95028.34;;;17.54;49.74
9774;BME280;4926;42.670;23.316;2023-05-13T08:12:01;95027.22;;;17.38;50.08
9774;BME280;4926;42.670;23.316;2023-05-13T08:14:30;95032.78;;;17.50;51.10
9774;BME280;4926;42.670;23.316;2023-05-13T08:16:58;95024.53;;;17.55;50.44
9774;BME280;4926;42.670;23.316;2023-05-13T08:19:27;95020.75;;;17.56;51.35
9774;BME280;4926;42.670;23.316;2023-05-13T08:21:54;95021.03;;;17.80;50.73
9774;BME280;4926;42.670;23.316;2023-05-13T08:24:20;95012.78;;;17.85;50.14
9774;BME280;4926;42.670;23.316;2023-05-13T08:26:47;95013.97;;;18.13;50.21
9774;BME280;4926;42.670;23.316;2023-05-13T08:29:14;95015.25;;;18.07;48.89
9774;BME280;4926;42.670;23.316;2023-05-13T08:31:42;95026.31;;;18.14;51.60
9774;BME280;4926;42.670;23.316;2023-05-13T08:34:08;95031.94;;;18.38;53.59
9774;BME280;4926;42.670;23.316;2023-05-13T08:36:35;95030.19;;;18.51;53.21
9774;BME280;4926;42.670;23.316;2023-05-13T08:39:02;95026.41;;;18.43;53.08
9774;BME280;4926;42.670;23.316;2023-05-13T08:41:29;95023.34;;;18.53;53.03
9774;BME280;4926;42.670;23.316;2023-05-13T08:43:57;95020.75;;;18.28;52.77
9774;BME280;4926;42.670;23.316;2023-05-13T08:46:26;95028.03;;;17.64;53.48
9774;BME280;4926;42.670;23.316;2023-05-13T08:48:55;95041.63;;;17.93;54.72
9774;BME280;4926;42.670;23.316;2023-05-13T08:51:23;95023.06;;;18.46;53.33
9774;BME280;4926;42.670;23.316;2023-05-13T08:53:50;95015.16;;;19.20;52.62
9774;BME280;4926;42.670;23.316;2023-05-13T08:56:18;94999.53;;;19.05;50.27
9774;BME280;4926;42.670;23.316;2023-05-13T08:58:46;95012.28;;;17.92;52.16
9774;BME280;4926;42.670;23.316;2023-05-13T09:01:15;95016.38;;;18.06;53.95
9774;BME280;4926;42.670;23.316;2023-05-13T09:03:52;94999.09;;;18.74;52.49
9774;BME280;4926;42.670;23.316;2023-05-13T09:06:21;94999.22;;;19.07;52.82
9774;BME280;4926;42.670;23.316;2023-05-13T09:08:48;94986.91;;;18.47;50.68
9774;BME280;4926;42.670;23.316;2023-05-13T09:11:15;94983.19;;;18.14;51.49
9774;BME280;4926;42.670;23.316;2023-05-13T09:13:42;94992.63;;;18.96;51.46
9774;BME280;4926;42.670;23.316;2023-05-13T09:16:09;94982.09;;;19.23;51.64
9774;BME280;4926;42.670;23.316;2023-05-13T09:18:37;94976.09;;;19.59;50.72
9774;BME280;4926;42.670;23.316;2023-05-13T09:21:28;94978.28;;;19.45;48.95
9774;BME280;4926;42.670;23.316;2023-05-13T09:24:00;94977.34;;;20.06;49.67
9774;BME280;4926;42.670;23.316;2023-05-13T09:26:28;94977.94;;;20.24;49.10
9774;BME280;4926;42.670;23.316;2023-05-13T09:29:18;94972.38;;;19.96;49.13
9774;BME280;4926;42.670;23.316;2023-05-13T09:31:47;94968.81;;;20.16;48.48
9774;BME280;4926;42.670;23.316;2023-05-13T09:34:14;94967.25;;;20.51;48.96
9774;BME280;4926;42.670;23.316;2023-05-13T09:37:00;94960.00;;;20.79;48.62
9774;BME280;4926;42.670;23.316;2023-05-13T09:39:28;94966.75;;;20.73;48.44
9774;BME280;4926;42.670;23.316;2023-05-13T09:41:55;94961.22;;;21.06;47.29
9774;BME280;4926;42.670;23.316;2023-05-13T09:44:22;94951.03;;;20.27;47.15
9774;BME280;4926;42.670;23.316;2023-05-13T09:46:50;94963.59;;;19.66;49.74
9774;BME280;4926;42.670;23.316;2023-05-13T09:49:17;94970.41;;;19.84;50.22
9774;BME280;4926;42.670;23.316;2023-05-13T09:51:47;94959.84;;;19.91;49.83
9774;BME280;4926;42.670;23.316;2023-05-13T09:54:15;94961.31;;;19.89;49.66
9774;BME280;4926;42.670;23.316;2023-05-13T09:56:44;94958.81;;;19.84;49.00
9774;BME280;4926;42.670;23.316;2023-05-13T09:59:11;94953.69;;;19.58;49.10
9774;BME280;4926;42.670;23.316;2023-05-13T10:01:39;94962.88;;;19.90;49.77
9774;BME280;4926;42.670;23.316;2023-05-13T10:04:09;94963.97;;;19.77;49.63
9774;BME280;4926;42.670;23.316;2023-05-13T10:06:41;94957.06;;;20.12;48.92
9774;BME280;4926;42.670;23.316;2023-05-13T10:09:09;94951.41;;;20.05;48.78
9774;BME280;4926;42.670;23.316;2023-05-13T10:11:37;94955.69;;;19.94;49.87
9774;BME280;4926;42.670;23.316;2023-05-13T10:14:05;94952.31;;;20.09;49.20
9774;BME280;4926;42.670;23.316;2023-05-13T10:16:32;94967.63;;;20.05;50.18
9774;BME280;4926;42.670;23.316;2023-05-13T10:18:59;94970.19;;;20.46;50.40
9774;BME280;4926;42.670;23.316;2023-05-13T10:21:27;94959.88;;;20.88;48.74
9774;BME280;4926;42.670;23.316;2023-05-13T10:23:55;94966.25;;;21.20;49.40
9774;BME280;4926;42.670;23.316;2023-05-13T10:26:22;94945.41;;;21.20;47.65
9774;BME280;4926;42.670;23.316;2023-05-13T10:28:50;94946.78;;;20.90;48.11
9774;BME280;4926;42.670;23.316;2023-05-13T10:31:17;94948.25;;;20.87;48.37
9774;BME280;4926;42.670;23.316;2023-05-13T10:33:44;94944.22;;;20.81;48.37
9774;BME280;4926;42.670;23.316;2023-05-13T10:36:45;94944.47;;;20.40;48.43
9774;BME280;4926;42.670;23.316;2023-05-13T10:39:35;94956.81;;;19.93;49.87
9774;BME280;4926;42.670;23.316;2023-05-13T10:42:24;94964.38;;;19.99;49.83
9774;BME280;4926;42.670;23.316;2023-05-13T10:44:57;94968.09;;;20.07;50.28
9774;BME280;4926;42.670;23.316;2023-05-13T10:47:24;94945.47;;;20.12;48.59
9774;BME280;4926;42.670;23.316;2023-05-13T10:49:52;94969.63;;;19.84;49.70
9774;BME280;4926;42.670;23.316;2023-05-13T10:52:19;94967.56;;;19.69;50.13
9774;BME280;4926;42.670;23.316;2023-05-13T10:54:58;94966.41;;;19.70;50.32
9774;BME280;4926;42.670;23.316;2023-05-13T10:57:27;94966.78;;;19.80;50.33
9774;BME280;4926;42.670;23.316;2023-05-13T11:00:15;94972.16;;;19.68;50.58
9774;BME280;4926;42.670;23.316;2023-05-13T11:02:44;94967.25;;;20.51;50.30
9774;BME280;4926;42.670;23.316;2023-05-13T11:05:18;94965.06;;;21.33;49.00
9774;BME280;4926;42.670;23.316;2023-05-13T11:07:54;94950.06;;;20.71;47.61
9774;BME280;4926;42.670;23.316;2023-05-13T11:10:27;94948.94;;;20.84;48.54
9774;BME280;4926;42.670;23.316;2023-05-13T11:13:19;94946.13;;;21.33;48.03
9774;BME280;4926;42.670;23.316;2023-05-13T11:15:50;94930.22;;;21.86;47.55
9774;BME280;4926;42.670;23.316;2023-05-13T11:18:18;94926.88;;;22.08;46.18
9774;BME280;4926;42.670;23.316;2023-05-13T11:20:51;94935.69;;;21.19;47.73
9774;BME280;4926;42.670;23.316;2023-05-13T11:23:18;94927.53;;;21.47;48.00
9774;BME280;4926;42.670;23.316;2023-05-13T11:25:45;94919.53;;;21.78;47.54
9774;BME280;4926;42.670;23.316;2023-05-13T11:28:15;94929.97;;;21.64;47.40
9774;BME280;4926;42.670;23.316;2023-05-13T11:30:53;94913.63;;;21.76;46.90
9774;BME280;4926;42.670;23.316;2023-05-13T11:33:20;94917.97;;;21.65;47.46
9774;BME280;4926;42.670;23.316;2023-05-13T11:35:53;94898.25;;;22.42;46.87
9774;BME280;4926;42.670;23.316;2023-05-13T11:38:22;94895.97;;;22.44;45.75
9774;BME280;4926;42.670;23.316;2023-05-13T11:40:49;94901.59;;;21.46;47.15
9774;BME280;4926;42.670;23.316;2023-05-13T11:43:18;94898.25;;;21.37;46.76
9774;BME280;4926;42.670;23.316;2023-05-13T11:45:46;94900.16;;;21.64;46.89
9774;BME280;4926;42.670;23.316;2023-05-13T11:48:22;94895.31;;;22.00;46.01
9774;BME280;4926;42.670;23.316;2023-05-13T11:50:50;94886.78;;;22.49;45.23
9774;BME280;4926;42.670;23.316;2023-05-13T11:53:23;94891.91;;;22.69;45.41
9774;BME280;4926;42.670;23.316;2023-05-13T11:55:50;94879.44;;;23.22;44.91
9774;BME280;4926;42.670;23.316;2023-05-13T11:58:16;94868.56;;;23.83;44.44
9774;BME280;4926;42.670;23.316;2023-05-13T12:00:43;94850.56;;;24.20;42.56
9774;BME280;4926;42.670;23.316;2023-05-13T12:03:11;94844.88;;;23.61;43.40
9774;BME280;4926;42.670;23.316;2023-05-13T12:05:45;94843.66;;;24.26;42.66
9774;BME280;4926;42.670;23.316;2023-05-13T12:08:13;94844.75;;;23.54;42.78
9774;BME280;4926;42.670;23.316;2023-05-13T12:10:41;94852.47;;;22.56;43.91
9774;BME280;4926;42.670;23.316;2023-05-13T12:13:09;94861.38;;;22.06;45.43
9774;BME280;4926;42.670;23.316;2023-05-13T12:15:36;94862.34;;;22.83;45.30
9774;BME280;4926;42.670;23.316;2023-05-13T12:18:03;94860.94;;;23.47;44.17
9774;BME280;4926;42.670;23.316;2023-05-13T12:20:32;94833.03;;;23.95;42.59
9774;BME280;4926;42.670;23.316;2023-05-13T12:23:00;94838.50;;;23.95;41.74
9774;BME280;4926;42.670;23.316;2023-05-13T12:25:41;94848.38;;;23.39;43.31
9774;BME280;4926;42.670;23.316;2023-05-13T12:28:11;94838.13;;;23.74;42.71
9774;BME280;4926;42.670;23.316;2023-05-13T12:30:41;94824.81;;;23.69;42.38
9774;BME280;4926;42.670;23.316;2023-05-13T12:33:13;94828.91;;;24.27;42.11
9774;BME280;4926;42.670;23.316;2023-05-13T12:35:40;94830.22;;;24.10;41.08
9774;BME280;4926;42.670;23.316;2023-05-13T12:38:13;94827.88;;;23.25;41.73
9774;BME280;4926;42.670;23.316;2023-05-13T12:40:40;94834.63;;;23.51;41.79
9774;BME280;4926;42.670;23.316;2023-05-13T12:43:07;94836.34;;;23.20;42.51
9774;BME280;4926;42.670;23.316;2023-05-13T12:45:36;94829.91;;;23.48;42.52
9774;BME280;4926;42.670;23.316;2023-05-13T12:48:04;94828.63;;;23.22;42.50
9774;BME280;4926;42.670;23.316;2023-05-13T12:50:31;94826.28;;;22.83;42.95
9774;BME280;4926;42.670;23.316;2023-05-13T12:52:58;94818.25;;;23.47;42.23
9774;BME280;4926;42.670;23.316;2023-05-13T12:55:26;94806.22;;;23.71;41.60
9774;BME280;4926;42.670;23.316;2023-05-13T12:57:54;94824.69;;;23.20;42.50
9774;BME280;4926;42.670;23.316;2023-05-13T13:00:25;94821.34;;;23.07;43.07
9774;BME280;4926;42.670;23.316;2023-05-13T13:02:52;94811.47;;;23.18;42.43
9774;BME280;4926;42.670;23.316;2023-05-13T13:05:19;94808.09;;;23.44;42.31
9774;BME280;4926;42.670;23.316;2023-05-13T13:07:46;94796.44;;;23.66;41.31
9774;BME280;4926;42.670;23.316;2023-05-13T13:10:13;94801.88;;;23.44;41.07
9774;BME280;4926;42.670;23.316;2023-05-13T13:12:41;94808.03;;;23.02;41.00
9774;BME280;4926;42.670;23.316;2023-05-13T13:15:09;94812.66;;;22.79;42.71
9774;BME280;4926;42.670;23.316;2023-05-13T13:17:36;94811.34;;;22.04;43.84
9774;BME280;4926;42.670;23.316;2023-05-13T13:20:03;94822.03;;;21.97;43.49